Time;durP1;ratioP1;P1;durP2;ratioP2;P2;SDS_P1;SDS_P2;PMS_P1;PMS_P2;Temp;Humidity;BMP_temperature;BMP_pressure;BME280_temperature;BME280_humidity;BME280_pressure;Samples;Min_cycle;Max_cycle;Signal;HPM_P1;HPM_P2
2023/03/07 00:01:22;;;;;;;;;;;17.30;61.10;;;;;;5040259;28;1600;-68
2023/03/07 00:03:48;;;;;;;;;;;17.30;61.10;;;;;;5039403;28;859;-69
2023/03/07 00:06:13;;;;;;;;;;;17.30;61.20;;;;;;5042670;28;902;-68
2023/03/07 00:08:38;;;;;;;;;;;17.30;61.90;;;;;;5040294;28;876;-68
2023/03/07 00:11:05;;;;;;;;;;;17.30;61.20;;;;;;5073742;28;855;-67
2023/03/07 00:13:30;;;;;;;;;;;17.30;61.10;;;;;;5040013;28;1906;-69
2023/03/07 00:16:02;;;;;;;;;;;17.30;61.20;;;;;;5074866;28;873;-68
2023/03/07 00:18:28;;;;;;;;;;;17.30;61.20;;;;;;5039497;28;796;-67
2023/03/07 00:21:01;;;;;;;;;;;17.30;61.30;;;;;;5073255;28;898;-67
2023/03/07 00:23:27;;;;;;;;;;;17.30;61.20;;;;;;5071291;28;1284;-67
2023/03/07 00:26:05;;;;;;;;;;;17.30;61.20;;;;;;5072359;28;800;-67
2023/03/07 00:28:31;;;;;;;;;;;17.30;61.20;;;;;;5041485;28;1317;-67
2023/03/07 00:31:03;;;;;;;;;;;17.30;61.30;;;;;;5040482;28;844;-67
2023/03/07 00:33:28;;;;;;;;;;;17.30;61.20;;;;;;5040963;28;1902;-67
2023/03/07 00:36:00;;;;;;;;;;;17.30;61.30;;;;;;5041609;28;935;-67
2023/03/07 00:38:28;;;;;;;;;;;17.30;61.20;;;;;;5074368;28;1457;-67
2023/03/07 00:40:57;;;;;;;;;;;17.30;61.20;;;;;;5070363;28;1025;-67
2023/03/07 00:43:22;;;;;;;;;;;17.30;61.30;;;;;;5040336;28;1365;-67
2023/03/07 00:45:48;;;;;;;;;;;17.30;61.30;;;;;;5040932;28;911;-69
2023/03/07 00:48:13;;;;;;;;;;;17.20;61.20;;;;;;5070237;28;781;-68
2023/03/07 00:50:39;;;;;;;;;;;17.20;61.20;;;;;;5038451;28;796;-67
2023/03/07 00:53:04;;;;;;;;;;;17.30;61.30;;;;;;5039950;28;1966;-66
2023/03/07 00:55:30;;;;;;;;;;;17.20;61.30;;;;;;5072752;28;894;-66
2023/03/07 00:57:55;;;;;;;;;;;17.20;61.30;;;;;;5036852;28;944;-67
2023/03/07 01:00:21;;;;;;;;;;;17.20;61.30;;;;;;5038758;28;1026;-67
2023/03/07 01:02:46;;;;;;;;;;;17.20;61.30;;;;;;5041082;28;1269;-67
2023/03/07 01:05:11;;;;;;;;;;;17.20;61.30;;;;;;5040750;28;797;-67
2023/03/07 01:07:37;;;;;;;;;;;17.20;61.30;;;;;;5038538;28;1299;-66
2023/03/07 01:10:03;;;;;;;;;;;17.20;61.30;;;;;;5040063;28;888;-66
2023/03/07 01:12:28;;;;;;;;;;;17.20;61.30;;;;;;5041807;28;1915;-67
2023/03/07 01:14:53;;;;;;;;;;;17.30;61.40;;;;;;5038378;28;1486;-66
2023/03/07 01:17:19;;;;;;;;;;;17.20;61.30;;;;;;5039114;28;1023;-67
2023/03/07 01:19:44;;;;;;;;;;;17.20;61.30;;;;;;5040396;28;1350;-68
2023/03/07 01:22:10;;;;;;;;;;;17.20;61.30;;;;;;5039593;28;1355;-67
2023/03/07 01:24:35;;;;;;;;;;;17.20;61.30;;;;;;5038926;28;1050;-68
2023/03/07 01:27:01;;;;;;;;;;;17.20;61.30;;;;;;5041180;28;804;-68
2023/03/07 01:29:26;;;;;;;;;;;17.20;61.30;;;;;;5039023;28;888;-68
2023/03/07 01:31:51;;;;;;;;;;;17.20;61.40;;;;;;5040243;28;1902;-68
2023/03/07 01:34:17;;;;;;;;;;;17.20;61.40;;;;;;5038649;28;1065;-68
2023/03/07 01:36:42;;;;;;;;;;;17.20;61.40;;;;;;5038482;28;1360;-69
2023/03/07 01:39:12;;;;;;;;;;;17.20;61.40;;;;;;5035557;28;799;-69
2023/03/07 01:41:38;;;;;;;;;;;17.20;61.40;;;;;;5070805;28;1297;-68
2023/03/07 01:44:06;;;;;;;;;;;17.20;61.40;;;;;;5039308;28;844;-69
2023/03/07 01:46:33;;;;;;;;;;;17.20;61.40;;;;;;5070754;28;995;-69
2023/03/07 01:48:59;;;;;;;;;;;17.20;61.40;;;;;;5036289;28;875;-68
2023/03/07 01:51:24;;;;;;;;;;;17.20;61.40;;;;;;5036528;28;1905;-69
2023/03/07 01:53:50;;;;;;;;;;;17.20;61.40;;;;;;5070819;28;824;-67
2023/03/07 01:56:15;;;;;;;;;;;17.20;61.40;;;;;;5037627;28;911;-67
2023/03/07 01:58:41;;;;;;;;;;;17.20;61.40;;;;;;5040390;28;1180;-68
2023/03/07 02:01:07;;;;;;;;;;;17.20;61.40;;;;;;5036635;28;863;-68
2023/03/07 02:03:37;;;;;;;;;;;17.20;61.40;;;;;;5070429;28;1296;-67
2023/03/07 02:06:04;;;;;;;;;;;17.20;61.40;;;;;;5070537;28;883;-67
2023/03/07 02:08:29;;;;;;;;;;;17.20;61.50;;;;;;5067573;28;1027;-67
2023/03/07 02:10:55;;;;;;;;;;;17.20;61.40;;;;;;5071393;28;910;-69
2023/03/07 02:13:20;;;;;;;;;;;17.20;61.50;;;;;;5040499;28;1971;-67
2023/03/07 02:15:46;;;;;;;;;;;17.20;61.50;;;;;;5040238;28;1018;-67
2023/03/07 02:18:12;;;;;;;;;;;17.20;61.40;;;;;;5068967;28;832;-67
2023/03/07 02:20:38;;;;;;;;;;;17.20;61.40;;;;;;5039598;28;884;-67
2023/03/07 02:23:04;;;;;;;;;;;17.20;61.50;;;;;;5035338;28;1343;-67
2023/03/07 02:25:31;;;;;;;;;;;17.20;61.50;;;;;;5037954;28;833;-67
2023/03/07 02:27:57;;;;;;;;;;;17.20;61.50;;;;;;5071946;28;848;-68
2023/03/07 02:30:22;;;;;;;;;;;17.20;61.50;;;;;;5071661;28;1080;-68
2023/03/07 02:32:48;;;;;;;;;;;17.20;61.50;;;;;;5038137;28;1961;-68
2023/03/07 02:35:20;;;;;;;;;;;17.10;61.40;;;;;;5039780;28;1046;-68
2023/03/07 02:37:46;;;;;;;;;;;17.20;61.50;;;;;;5038382;28;977;-67
2023/03/07 02:40:11;;;;;;;;;;;17.20;62.30;;;;;;5039134;28;800;-67
2023/03/07 02:42:37;;;;;;;;;;;17.10;61.40;;;;;;5070135;28;1248;-67
2023/03/07 02:45:04;;;;;;;;;;;17.20;61.50;;;;;;5071833;28;934;-67
2023/03/07 02:47:29;;;;;;;;;;;17.10;61.40;;;;;;5066934;28;1006;-67
2023/03/07 02:49:55;;;;;;;;;;;17.20;61.50;;;;;;5038619;28;902;-67
2023/03/07 02:52:20;;;;;;;;;;;17.10;61.40;;;;;;5036372;28;1914;-67
2023/03/07 02:54:46;;;;;;;;;;;17.10;61.40;;;;;;5068446;28;1180;-66
2023/03/07 02:57:12;;;;;;;;;;;17.20;61.50;;;;;;5036214;28;896;-67
2023/03/07 02:59:38;;;;;;;;;;;17.10;61.50;;;;;;5065434;28;954;-67
2023/03/07 03:02:03;;;;;;;;;;;17.10;61.50;;;;;;5037472;28;1244;-67
2023/03/07 03:04:29;;;;;;;;;;;17.10;61.50;;;;;;5036393;28;1077;-67
2023/03/07 03:06:54;;;;;;;;;;;17.10;61.50;;;;;;5036879;28;911;-67
2023/03/07 03:09:20;;;;;;;;;;;17.20;61.60;;;;;;5036219;28;897;-67
2023/03/07 03:11:45;;;;;;;;;;;17.10;61.50;;;;;;5069678;28;1906;-68
2023/03/07 03:14:11;;;;;;;;;;;17.10;61.50;;;;;;5040822;28;797;-68
2023/03/07 03:16:37;;;;;;;;;;;17.20;61.60;;;;;;5040175;28;990;-68
2023/03/07 03:19:02;;;;;;;;;;;17.20;61.50;;;;;;5041419;28;1271;-68
2023/03/07 03:21:28;;;;;;;;;;;17.20;62.30;;;;;;5043517;28;1318;-68
2023/03/07 03:23:53;;;;;;;;;;;17.10;61.50;;;;;;5044381;28;1298;-68
2023/03/07 03:26:19;;;;;;;;;;;17.10;61.50;;;;;;5040727;28;1406;-68
2023/03/07 03:28:44;;;;;;;;;;;17.10;61.50;;;;;;5045177;28;1393;-68
2023/03/07 03:31:10;;;;;;;;;;;17.20;61.50;;;;;;5044201;28;1329;-67
2023/03/07 03:33:36;;;;;;;;;;;17.10;61.50;;;;;;5042395;28;2031;-67
2023/03/07 03:36:06;;;;;;;;;;;17.20;61.50;;;;;;5071186;28;1417;-68
2023/03/07 03:38:32;;;;;;;;;;;17.20;61.50;;;;;;5072898;28;1100;-68
2023/03/07 03:40:57;;;;;;;;;;;17.10;61.50;;;;;;5043607;28;1410;-68
2023/03/07 03:43:23;;;;;;;;;;;17.10;61.50;;;;;;5043958;28;1362;-69
2023/03/07 03:45:55;;;;;;;;;;;17.10;61.50;;;;;;5042875;28;1363;-68
2023/03/07 03:48:20;;;;;;;;;;;17.10;61.50;;;;;;5072630;28;881;-68
2023/03/07 03:50:46;;;;;;;;;;;17.10;61.50;;;;;;5042447;28;867;-68
2023/03/07 03:53:11;;;;;;;;;;;17.10;61.50;;;;;;5038463;28;1910;-68
2023/03/07 03:55:37;;;;;;;;;;;17.10;61.50;;;;;;5040453;28;860;-67
2023/03/07 03:58:03;;;;;;;;;;;17.10;61.50;;;;;;5041002;28;883;-68
2023/03/07 04:00:29;;;;;;;;;;;17.20;61.50;;;;;;5038665;28;1186;-67
2023/03/07 04:02:55;;;;;;;;;;;17.10;61.50;;;;;;5072400;28;1306;-67
2023/03/07 04:05:20;;;;;;;;;;;17.10;61.50;;;;;;5039085;28;1070;-68
2023/03/07 04:07:46;;;;;;;;;;;17.20;61.60;;;;;;5071620;28;823;-68
2023/03/07 04:10:11;;;;;;;;;;;17.10;61.50;;;;;;5040705;28;1066;-67
2023/03/07 04:12:37;;;;;;;;;;;17.20;61.60;;;;;;5039837;28;1906;-68
2023/03/07 04:15:03;;;;;;;;;;;17.10;61.50;;;;;;5073136;28;817;-68
2023/03/07 04:17:28;;;;;;;;;;;17.10;61.50;;;;;;5046510;28;1303;-67
2023/03/07 04:19:54;;;;;;;;;;;17.10;61.50;;;;;;5040543;28;978;-68
2023/03/07 04:22:20;;;;;;;;;;;17.10;61.50;;;;;;5039239;28;1279;-68
2023/03/07 04:24:45;;;;;;;;;;;17.10;61.50;;;;;;5069323;28;923;-68
2023/03/07 04:27:11;;;;;;;;;;;17.10;61.50;;;;;;5040585;28;1265;-68
2023/03/07 04:29:36;;;;;;;;;;;17.10;61.50;;;;;;5040202;28;860;-68
2023/03/07 04:32:02;;;;;;;;;;;17.10;61.50;;;;;;5040736;28;1895;-68
2023/03/07 04:34:27;;;;;;;;;;;17.10;61.50;;;;;;5037236;28;1533;-74
2023/03/07 04:36:53;;;;;;;;;;;17.10;61.50;;;;;;5046227;28;1731;-72
2023/03/07 04:39:18;;;;;;;;;;;17.10;61.50;;;;;;5044361;28;1234;-72
2023/03/07 04:41:44;;;;;;;;;;;17.10;61.50;;;;;;5038377;28;1843;-71
2023/03/07 04:44:09;;;;;;;;;;;17.10;61.50;;;;;;5043273;28;1194;-73
2023/03/07 04:46:34;;;;;;;;;;;17.10;61.50;;;;;;5039675;28;891;-73
2023/03/07 04:49:00;;;;;;;;;;;17.10;61.60;;;;;;5040126;28;1857;-73
2023/03/07 04:51:25;;;;;;;;;;;17.10;61.60;;;;;;5038333;28;1902;-72
2023/03/07 04:53:51;;;;;;;;;;;17.10;61.60;;;;;;5021921;28;5366;-72
2023/03/07 04:56:16;;;;;;;;;;;17.10;61.60;;;;;;5034010;28;4544;-73
2023/03/07 04:58:42;;;;;;;;;;;17.10;61.50;;;;;;5031226;28;4344;-73
2023/03/07 05:01:07;;;;;;;;;;;17.10;61.60;;;;;;5033186;28;4670;-73
2023/03/07 05:03:33;;;;;;;;;;;17.10;61.60;;;;;;5056424;28;4775;-73
2023/03/07 05:06:05;;;;;;;;;;;17.10;61.60;;;;;;5031451;28;4452;-72
2023/03/07 05:08:31;;;;;;;;;;;17.10;61.60;;;;;;5028422;28;4476;-71
2023/03/07 05:10:56;;;;;;;;;;;17.10;61.50;;;;;;5036628;28;1375;-72
2023/03/07 05:13:22;;;;;;;;;;;17.10;61.50;;;;;;5038930;28;2008;-73
2023/03/07 05:15:54;;;;;;;;;;;17.10;61.40;;;;;;5038511;28;880;-72
2023/03/07 05:18:19;;;;;;;;;;;17.20;61.40;;;;;;5060387;28;1586;-72
2023/03/07 05:20:45;;;;;;;;;;;17.20;61.20;;;;;;5059585;28;1164;-70
2023/03/07 05:23:11;;;;;;;;;;;17.20;61.10;;;;;;5038104;28;1237;-71
2023/03/07 05:25:36;;;;;;;;;;;17.30;61.00;;;;;;5039628;28;1014;-71
2023/03/07 05:28:01;;;;;;;;;;;17.30;60.90;;;;;;5040695;28;872;-73
2023/03/07 05:30:27;;;;;;;;;;;17.30;60.70;;;;;;5042110;28;887;-72
2023/03/07 05:32:52;;;;;;;;;;;17.40;60.70;;;;;;5037458;28;1914;-71
2023/03/07 05:35:19;;;;;;;;;;;17.40;60.60;;;;;;5040824;28;934;-72
2023/03/07 05:37:45;;;;;;;;;;;17.50;60.50;;;;;;5038940;28;1610;-71
2023/03/07 05:40:11;;;;;;;;;;;17.50;60.40;;;;;;5072085;28;909;-72
2023/03/07 05:42:36;;;;;;;;;;;17.50;60.30;;;;;;5038496;28;1283;-72
2023/03/07 05:45:02;;;;;;;;;;;17.50;60.20;;;;;;5037600;28;880;-72
2023/03/07 05:47:29;;;;;;;;;;;17.50;60.10;;;;;;5038673;28;825;-71
2023/03/07 05:49:54;;;;;;;;;;;17.60;60.10;;;;;;5037288;28;951;-72
2023/03/07 05:52:20;;;;;;;;;;;17.60;60.00;;;;;;5040048;28;1902;-71
2023/03/07 05:54:45;;;;;;;;;;;17.60;59.90;;;;;;5039078;28;1293;-72
2023/03/07 05:57:11;;;;;;;;;;;17.60;59.90;;;;;;5039210;28;935;-72
2023/03/07 05:59:36;;;;;;;;;;;17.60;59.90;;;;;;5071075;28;990;-71
2023/03/07 06:02:02;;;;;;;;;;;17.60;59.80;;;;;;5040462;28;1249;-72
2023/03/07 06:04:27;;;;;;;;;;;17.60;59.80;;;;;;5037554;28;907;-72
2023/03/07 06:06:52;;;;;;;;;;;17.70;59.80;;;;;;5038794;28;1219;-73
2023/03/07 06:09:18;;;;;;;;;;;17.70;59.80;;;;;;5037803;28;1002;-71
2023/03/07 06:11:43;;;;;;;;;;;17.70;59.80;;;;;;5037550;28;1985;-72
2023/03/07 06:14:09;;;;;;;;;;;17.70;59.70;;;;;;5035780;28;1160;-72
2023/03/07 06:16:34;;;;;;;;;;;17.70;59.70;;;;;;5037614;28;925;-74
2023/03/07 06:19:00;;;;;;;;;;;17.70;59.70;;;;;;5044138;28;887;-72
2023/03/07 06:21:25;;;;;;;;;;;17.70;59.70;;;;;;5036411;28;1284;-73
2023/03/07 06:23:51;;;;;;;;;;;17.70;59.70;;;;;;5039893;28;852;-73
2023/03/07 06:26:16;;;;;;;;;;;17.70;59.70;;;;;;5036213;28;840;-71
2023/03/07 06:28:42;;;;;;;;;;;17.70;59.70;;;;;;5068701;28;1042;-73
2023/03/07 06:31:11;;;;;;;;;;;17.70;59.70;;;;;;5070072;28;1056;-74
2023/03/07 06:33:37;;;;;;;;;;;17.70;59.70;;;;;;5037542;28;1931;-73
2023/03/07 06:36:06;;;;;;;;;;;17.70;59.70;;;;;;5036402;28;812;-72
2023/03/07 06:38:31;;;;;;;;;;;17.70;59.70;;;;;;5072428;28;1106;-73
2023/03/07 06:40:57;;;;;;;;;;;17.70;59.70;;;;;;5036096;28;1348;-73
2023/03/07 06:43:22;;;;;;;;;;;17.70;59.70;;;;;;5071022;28;1297;-76
2023/03/07 06:45:48;;;;;;;;;;;17.70;59.70;;;;;;5034524;28;1058;-72
2023/03/07 06:48:13;;;;;;;;;;;17.60;59.70;;;;;;5036599;28;814;-71
2023/03/07 06:50:39;;;;;;;;;;;17.60;59.70;;;;;;5077115;28;1251;-70
2023/03/07 06:53:04;;;;;;;;;;;17.70;59.70;;;;;;5073986;28;1971;-69
2023/03/07 06:55:29;;;;;;;;;;;17.70;59.80;;;;;;5043622;28;1003;-69
2023/03/07 06:57:55;;;;;;;;;;;17.70;59.80;;;;;;5073846;28;1029;-68
2023/03/07 07:00:21;;;;;;;;;;;17.70;60.50;;;;;;5044275;28;858;-68
2023/03/07 07:02:47;;;;;;;;;;;17.60;59.80;;;;;;5042768;28;1335;-71
2023/03/07 07:05:13;;;;;;;;;;;17.60;59.80;;;;;;5050041;28;971;-71
2023/03/07 07:07:38;;;;;;;;;;;17.60;59.80;;;;;;5045713;28;884;-68
2023/03/07 07:10:04;;;;;;;;;;;17.60;59.80;;;;;;5042721;28;859;-68
2023/03/07 07:12:29;;;;;;;;;;;17.60;59.80;;;;;;5042929;28;1914;-69
2023/03/07 07:14:55;;;;;;;;;;;17.60;60.60;;;;;;5037845;28;875;-69
2023/03/07 07:17:20;;;;;;;;;;;17.60;59.90;;;;;;5040348;28;898;-68
2023/03/07 07:19:46;;;;;;;;;;;17.60;59.90;;;;;;5042237;28;859;-69
2023/03/07 07:22:11;;;;;;;;;;;17.60;59.90;;;;;;5074593;28;1262;-69
2023/03/07 07:24:37;;;;;;;;;;;17.60;59.90;;;;;;5071024;28;831;-69
2023/03/07 07:27:03;;;;;;;;;;;17.60;59.90;;;;;;5045271;28;876;-69
2023/03/07 07:29:28;;;;;;;;;;;17.60;60.00;;;;;;5039217;28;845;-69
2023/03/07 07:31:54;;;;;;;;;;;17.60;60.00;;;;;;5042298;28;1898;-69
2023/03/07 07:34:19;;;;;;;;;;;17.50;59.90;;;;;;5074415;28;824;-69
2023/03/07 07:36:45;;;;;;;;;;;17.60;60.00;;;;;;5040772;28;1617;-69
2023/03/07 07:39:10;;;;;;;;;;;17.60;60.00;;;;;;5037638;28;927;-68
2023/03/07 07:41:36;;;;;;;;;;;17.60;60.10;;;;;;5073429;28;1288;-72
2023/03/07 07:44:01;;;;;;;;;;;17.60;60.10;;;;;;5038905;28;812;-68
2023/03/07 07:46:30;;;;;;;;;;;17.60;60.10;;;;;;5039294;28;868;-75
2023/03/07 07:48:55;;;;;;;;;;;17.60;60.10;;;;;;5039191;28;867;-71
2023/03/07 07:51:21;;;;;;;;;;;17.50;60.10;;;;;;5072637;28;1278;-74
2023/03/07 07:53:46;;;;;;;;;;;17.50;60.10;;;;;;5074308;28;1965;-73
2023/03/07 07:56:12;;;;;;;;;;;17.50;60.10;;;;;;5040563;28;931;-70
2023/03/07 07:58:38;;;;;;;;;;;17.50;60.10;;;;;;5072448;28;799;-69
2023/03/07 08:01:16;;;;;;;;;;;17.50;60.20;;;;;;5048678;28;1282;-68
2023/03/07 08:03:42;;;;;;;;;;;17.50;60.20;;;;;;5073323;28;1153;-68
2023/03/07 08:06:07;;;;;;;;;;;17.50;60.20;;;;;;5073504;28;903;-68
2023/03/07 08:08:33;;;;;;;;;;;17.50;60.20;;;;;;5044703;28;1470;-68
2023/03/07 08:10:58;;;;;;;;;;;17.50;60.20;;;;;;5041140;28;813;-68
2023/03/07 08:13:24;;;;;;;;;;;17.50;60.20;;;;;;5041564;28;1977;-68
2023/03/07 08:15:49;;;;;;;;;;;17.50;60.30;;;;;;5074143;28;856;-68
2023/03/07 08:18:14;;;;;;;;;;;17.50;60.30;;;;;;5038398;28;946;-68
2023/03/07 08:20:40;;;;;;;;;;;17.50;60.30;;;;;;5059828;28;1540;-68
2023/03/07 08:23:05;;;;;;;;;;;17.50;60.30;;;;;;5039742;28;1342;-68
2023/03/07 08:25:31;;;;;;;;;;;17.50;60.30;;;;;;5070861;28;1014;-68
2023/03/07 08:27:57;;;;;;;;;;;17.50;60.30;;;;;;5041594;28;887;-68
2023/03/07 08:30:25;;;;;;;;;;;17.50;60.30;;;;;;5041258;28;814;-68
2023/03/07 08:32:51;;;;;;;;;;;17.50;60.40;;;;;;5041423;28;1895;-68
2023/03/07 08:35:17;;;;;;;;;;;17.50;60.40;;;;;;5040685;28;945;-68
2023/03/07 08:37:42;;;;;;;;;;;17.50;60.40;;;;;;5072368;28;1410;-68
2023/03/07 08:40:08;;;;;;;;;;;17.40;60.30;;;;;;5070539;28;942;-68
2023/03/07 08:42:34;;;;;;;;;;;17.50;60.40;;;;;;5038626;28;1287;-68
2023/03/07 08:44:59;;;;;;;;;;;17.40;60.40;;;;;;5040187;28;860;-68
2023/03/07 08:47:25;;;;;;;;;;;17.40;60.40;;;;;;5038892;28;931;-68
2023/03/07 08:49:50;;;;;;;;;;;17.40;60.40;;;;;;5038278;28;935;-68
2023/03/07 08:52:16;;;;;;;;;;;17.40;60.40;;;;;;5040826;28;1977;-68
2023/03/07 08:54:41;;;;;;;;;;;17.40;60.40;;;;;;5038710;28;966;-68
2023/03/07 08:57:07;;;;;;;;;;;17.40;60.40;;;;;;5039640;28;800;-68
2023/03/07 08:59:33;;;;;;;;;;;17.40;60.40;;;;;;5038793;28;872;-68
2023/03/07 09:01:58;;;;;;;;;;;17.40;60.40;;;;;;5068886;28;1260;-68
2023/03/07 09:04:24;;;;;;;;;;;17.40;60.40;;;;;;5039971;28;812;-68
2023/03/07 09:06:49;;;;;;;;;;;17.40;60.40;;;;;;5040773;28;922;-68
2023/03/07 09:09:15;;;;;;;;;;;17.40;60.40;;;;;;5071250;28;1690;-69
2023/03/07 09:11:40;;;;;;;;;;;17.50;60.40;;;;;;5037644;28;1981;-68
2023/03/07 09:14:06;;;;;;;;;;;17.50;60.40;;;;;;5038396;28;1185;-68
2023/03/07 09:16:31;;;;;;;;;;;17.50;60.30;;;;;;5040137;28;1335;-68
2023/03/07 09:18:56;;;;;;;;;;;17.50;60.30;;;;;;5037001;28;895;-68
2023/03/07 09:21:22;;;;;;;;;;;17.50;60.20;;;;;;5041887;28;1255;-68
2023/03/07 09:23:47;;;;;;;;;;;17.50;60.20;;;;;;5040423;28;832;-68
2023/03/07 09:26:13;;;;;;;;;;;17.60;60.10;;;;;;5039180;28;888;-68
2023/03/07 09:28:38;;;;;;;;;;;17.60;60.10;;;;;;5069844;28;868;-68
2023/03/07 09:31:10;;;;;;;;;;;17.60;60.00;;;;;;5038826;28;905;-68
2023/03/07 09:33:36;;;;;;;;;;;17.60;60.00;;;;;;5071364;28;1902;-68
2023/03/07 09:36:05;;;;;;;;;;;17.60;59.90;;;;;;5070463;28;1387;-68
2023/03/07 09:38:31;;;;;;;;;;;17.60;59.90;;;;;;5038706;28;942;-68
2023/03/07 09:40:57;;;;;;;;;;;17.60;59.90;;;;;;5041372;28;872;-68
2023/03/07 09:43:25;;;;;;;;;;;17.60;59.90;;;;;;5066897;28;1286;-68
2023/03/07 09:45:53;;;;;;;;;;;17.60;59.90;;;;;;5055558;28;1175;-68
2023/03/07 09:48:19;;;;;;;;;;;17.60;59.80;;;;;;5069108;28;886;-68
2023/03/07 09:50:50;;;;;;;;;;;17.70;59.80;;;;;;5038938;28;1590;-68
2023/03/07 09:53:23;;;;;;;;;;;17.60;59.80;;;;;;5038709;28;1908;-68
2023/03/07 09:55:50;;;;;;;;;;;17.70;59.80;;;;;;5070230;28;855;-68
2023/03/07 09:58:17;;;;;;;;;;;17.70;59.80;;;;;;5037775;28;844;-68
2023/03/07 10:00:44;;;;;;;;;;;17.60;59.70;;;;;;5071245;28;861;-68
2023/03/07 10:03:13;;;;;;;;;;;17.70;59.70;;;;;;5069382;28;1258;-68
2023/03/07 10:05:47;;;;;;;;;;;17.70;59.70;;;;;;5038527;28;1085;-68
2023/03/07 10:08:14;;;;;;;;;;;17.70;59.70;;;;;;5054487;28;1230;-68
2023/03/07 10:10:46;;;;;;;;;;;17.70;59.60;;;;;;5035926;28;919;-68
2023/03/07 10:13:17;;;;;;;;;;;17.70;59.60;;;;;;5038211;28;1952;-68
2023/03/07 10:15:46;;;;;;;;;;;17.70;59.60;;;;;;5037245;28;816;-68
2023/03/07 10:18:15;;;;;;;;;;;17.70;59.60;;;;;;5065875;28;986;-69
2023/03/07 10:20:49;;;;;;;;;;;17.70;59.60;;;;;;5036136;28;985;-68
2023/03/07 10:23:33;;;;;;;;;;;17.70;59.60;;;;;;5040889;28;1228;-68
2023/03/07 10:26:05;;;;;;;;;;;17.70;59.70;;;;;;5042950;28;876;-68
2023/03/07 10:28:32;;;;;;;;;;;17.70;59.70;;;;;;5075299;28;1101;-68
2023/03/07 10:30:58;;;;;;;;;;;17.60;59.70;;;;;;5041942;28;882;-68
2023/03/07 10:33:23;;;;;;;;;;;17.60;59.70;;;;;;5073799;28;1964;-68
2023/03/07 10:36:01;;;;;;;;;;;17.60;59.80;;;;;;5072065;28;884;-68
2023/03/07 10:38:29;;;;;;;;;;;17.60;59.80;;;;;;5040898;28;1350;-67
2023/03/07 10:41:21;;;;;;;;;;;17.60;59.80;;;;;;5072386;28;919;-68
2023/03/07 10:43:46;;;;;;;;;;;17.60;59.80;;;;;;5039433;28;1009;-68
2023/03/07 10:46:19;;;;;;;;;;;17.60;59.90;;;;;;5075394;28;962;-68
2023/03/07 10:48:48;;;;;;;;;;;17.60;59.90;;;;;;5075525;28;1050;-68
2023/03/07 10:51:30;;;;;;;;;;;17.60;59.90;;;;;;5074078;28;846;-68
2023/03/07 10:53:56;;;;;;;;;;;17.60;60.00;;;;;;5071928;28;1936;-68
2023/03/07 10:56:21;;;;;;;;;;;17.60;60.00;;;;;;5043055;28;804;-68
2023/03/07 10:58:57;;;;;;;;;;;17.60;60.00;;;;;;5041215;28;863;-68
2023/03/07 11:01:26;;;;;;;;;;;17.60;60.10;;;;;;5074244;28;1347;-68
2023/03/07 11:03:59;;;;;;;;;;;17.50;60.00;;;;;;5041541;28;856;-68
2023/03/07 11:06:24;;;;;;;;;;;17.60;60.10;;;;;;5075622;28;891;-68
2023/03/07 11:08:50;;;;;;;;;;;17.60;60.10;;;;;;5042290;28;893;-68
2023/03/07 11:11:25;;;;;;;;;;;17.60;60.00;;;;;;5040987;28;856;-67
2023/03/07 11:14:02;;;;;;;;;;;17.60;60.00;;;;;;5073752;28;1891;-67
2023/03/07 11:16:28;;;;;;;;;;;17.60;60.00;;;;;;5038582;28;1634;-68
2023/03/07 11:18:53;;;;;;;;;;;17.60;60.60;;;;;;5046927;28;1531;-68
2023/03/07 11:21:24;;;;;;;;;;;17.60;59.90;;;;;;5074677;28;1314;-68
2023/03/07 11:23:56;;;;;;;;;;;17.60;59.80;;;;;;5040095;28;924;-67
2023/03/07 11:26:22;;;;;;;;;;;17.70;59.70;;;;;;5042900;28;833;-68
2023/03/07 11:28:47;;;;;;;;;;;17.70;59.70;;;;;;5045904;28;832;-66
2023/03/07 11:31:13;;;;;;;;;;;17.70;59.60;;;;;;5073817;28;1394;-68
2023/03/07 11:33:45;;;;;;;;;;;17.70;59.60;;;;;;5042047;28;1992;-68
2023/03/07 11:36:14;;;;;;;;;;;17.70;59.50;;;;;;5041691;28;902;-72
2023/03/07 11:38:51;;;;;;;;;;;17.70;59.50;;;;;;5073553;28;1360;-72
2023/03/07 11:41:36;;;;;;;;;;;17.70;59.50;;;;;;5038761;28;1303;-71
2023/03/07 11:44:16;;;;;;;;;;;17.70;59.50;;;;;;5047675;28;856;-71
2023/03/07 11:47:00;;;;;;;;;;;17.70;59.40;;;;;;5041231;28;867;-67
2023/03/07 11:49:35;;;;;;;;;;;17.80;59.40;;;;;;5041001;28;1033;-68
2023/03/07 11:52:15;;;;;;;;;;;17.80;59.40;;;;;;5044146;28;1898;-68
2023/03/07 11:54:47;;;;;;;;;;;17.80;59.40;;;;;;5045994;28;812;-71
2023/03/07 11:57:15;;;;;;;;;;;17.80;59.40;;;;;;5040125;28;843;-67
2023/03/07 11:59:47;;;;;;;;;;;17.80;59.40;;;;;;5040218;28;883;-67
2023/03/07 12:02:33;;;;;;;;;;;17.80;59.40;;;;;;5069973;28;2196;-68
2023/03/07 12:05:01;;;;;;;;;;;17.80;59.40;;;;;;5069694;28;1276;-67
2023/03/07 12:07:27;;;;;;;;;;;17.80;59.40;;;;;;5040721;28;1362;-69
2023/03/07 12:10:01;;;;;;;;;;;17.80;59.40;;;;;;5041493;28;1756;-69
2023/03/07 12:12:33;;;;;;;;;;;17.80;59.40;;;;;;5039498;28;1981;-67
2023/03/07 12:14:58;;;;;;;;;;;17.80;59.40;;;;;;5041894;28;799;-68
2023/03/07 12:17:27;;;;;;;;;;;17.80;59.40;;;;;;5042459;28;816;-68
2023/03/07 12:20:11;;;;;;;;;;;17.80;59.40;;;;;;5040578;28;911;-68
2023/03/07 12:22:42;;;;;;;;;;;17.80;59.40;;;;;;5042066;28;1255;-68
2023/03/07 12:25:11;;;;;;;;;;;17.80;59.40;;;;;;5073715;28;1022;-68
2023/03/07 12:27:41;;;;;;;;;;;17.80;59.40;;;;;;5041110;28;832;-68
2023/03/07 12:30:17;;;;;;;;;;;17.80;59.40;;;;;;5038618;28;1309;-68
2023/03/07 12:32:42;;;;;;;;;;;17.80;59.40;;;;;;5037946;28;1894;-68
2023/03/07 12:35:25;;;;;;;;;;;17.80;59.40;;;;;;5041265;28;1176;-68
2023/03/07 12:37:50;;;;;;;;;;;17.80;59.40;;;;;;5039630;28;1357;-68
2023/03/07 12:40:19;;;;;;;;;;;17.80;59.40;;;;;;5040827;28;1054;-68
2023/03/07 12:42:48;;;;;;;;;;;17.80;59.40;;;;;;5039628;28;1357;-68
2023/03/07 12:45:15;;;;;;;;;;;17.80;59.40;;;;;;5035612;28;956;-68
2023/03/07 12:47:54;;;;;;;;;;;17.80;59.40;;;;;;5069825;28;1316;-68
2023/03/07 12:50:28;;;;;;;;;;;17.80;59.40;;;;;;5037403;28;796;-68
2023/03/07 12:52:56;;;;;;;;;;;17.80;59.40;;;;;;5042443;28;1957;-68
2023/03/07 12:55:24;;;;;;;;;;;17.70;59.40;;;;;;5060719;28;1452;-68
2023/03/07 12:57:56;;;;;;;;;;;17.80;59.50;;;;;;5038056;28;809;-68
2023/03/07 13:00:21;;;;;;;;;;;17.70;60.00;;;;;;5075237;28;792;-67
2023/03/07 13:02:51;;;;;;;;;;;17.70;59.50;;;;;;5070241;28;1225;-68
2023/03/07 13:05:19;;;;;;;;;;;17.70;59.50;;;;;;5073271;28;845;-67
2023/03/07 13:07:51;;;;;;;;;;;17.70;59.60;;;;;;5056500;28;1305;-66
2023/03/07 13:10:17;;;;;;;;;;;17.70;59.50;;;;;;5055163;28;851;-68
2023/03/07 13:12:43;;;;;;;;;;;17.70;59.60;;;;;;5053285;28;1257;-68
2023/03/07 13:15:08;;;;;;;;;;;17.70;59.60;;;;;;5053854;28;1730;-68
2023/03/07 13:17:34;;;;;;;;;;;17.70;59.60;;;;;;5056130;28;954;-68
2023/03/07 13:20:17;;;;;;;;;;;17.70;59.50;;;;;;5055246;28;896;-68
2023/03/07 13:22:43;;;;;;;;;;;17.80;59.50;;;;;;5054412;28;1200;-68
2023/03/07 13:25:24;;;;;;;;;;;17.90;59.40;;;;;;5054054;28;813;-68
2023/03/07 13:28:02;;;;;;;;;;;18.10;59.30;;;;;;5055863;28;872;-68
2023/03/07 13:30:30;;;;;;;;;;;18.20;59.20;;;;;;5055057;28;924;-68
2023/03/07 13:32:56;;;;;;;;;;;18.30;58.90;;;;;;5056040;28;1345;-68
2023/03/07 13:35:31;;;;;;;;;;;18.40;58.60;;;;;;5052825;28;910;-68
2023/03/07 13:37:56;;;;;;;;;;;18.60;58.40;;;;;;5055933;28;896;-68
2023/03/07 13:40:27;;;;;;;;;;;18.70;58.20;;;;;;5055951;28;869;-68
2023/03/07 13:42:53;;;;;;;;;;;18.80;58.10;;;;;;5056853;28;1373;-68
2023/03/07 13:45:37;;;;;;;;;;;18.90;57.90;;;;;;5046502;28;1407;-68
2023/03/07 13:48:14;;;;;;;;;;;19.00;57.70;;;;;;5056729;28;943;-68
2023/03/07 13:50:51;;;;;;;;;;;19.20;57.60;;;;;;5055783;28;848;-68
2023/03/07 13:53:20;;;;;;;;;;;19.20;57.50;;;;;;5054012;28;1316;-68
2023/03/07 13:55:46;;;;;;;;;;;19.40;57.40;;;;;;5053615;28;943;-68
2023/03/07 13:58:25;;;;;;;;;;;19.40;57.20;;;;;;5051936;28;828;-68
2023/03/07 14:00:55;;;;;;;;;;;19.50;57.10;;;;;;5056381;28;776;-68
2023/03/07 14:03:26;;;;;;;;;;;19.60;57.10;;;;;;5047874;28;1281;-68
2023/03/07 14:05:52;;;;;;;;;;;19.60;57.00;;;;;;5055322;28;1961;-68
2023/03/07 14:08:18;;;;;;;;;;;19.70;57.00;;;;;;5051567;28;1046;-69
2023/03/07 14:10:43;;;;;;;;;;;19.70;56.80;;;;;;5040447;28;900;-69
2023/03/07 14:13:09;;;;;;;;;;;19.80;56.80;;;;;;5057256;28;1351;-69
2023/03/07 14:15:57;;;;;;;;;;;19.90;56.80;;;;;;5054610;28;777;-69
2023/03/07 14:18:26;;;;;;;;;;;19.90;56.80;;;;;;5046243;28;1535;-69
2023/03/07 14:20:58;;;;;;;;;;;19.90;56.70;;;;;;5040412;28;879;-69
2023/03/07 14:23:24;;;;;;;;;;;20.00;56.50;;;;;;5040682;28;1289;-69
2023/03/07 14:25:49;;;;;;;;;;;20.00;56.40;;;;;;5041388;28;1914;-69
2023/03/07 14:28:19;;;;;;;;;;;20.00;56.30;;;;;;5026174;28;831;-69
2023/03/07 14:31:11;;;;;;;;;;;20.10;56.30;;;;;;5041615;28;813;-69
2023/03/07 14:33:37;;;;;;;;;;;20.10;56.30;;;;;;5041012;28;1355;-69
2023/03/07 14:36:04;;;;;;;;;;;20.20;56.40;;;;;;5032934;28;2016;-69
2023/03/07 14:38:30;;;;;;;;;;;20.20;56.30;;;;;;5040528;28;898;-69